sensor_id;sensor_type;location;lat;lon;timestamp;temperature;humidity
59977;DHT22;45837;51.076;3.578;2023-02-25T00:00:02;19.80;55.10
59977;DHT22;45837;51.076;3.578;2023-02-25T00:02:37;19.80;55.70
59977;DHT22;45837;51.076;3.578;2023-02-25T00:05:03;19.80;56.40
59977;DHT22;45837;51.076;3.578;2023-02-25T00:07:31;19.80;55.20
59977;DHT22;45837;51.076;3.578;2023-02-25T00:09:57;19.80;55.20
59977;DHT22;45837;51.076;3.578;2023-02-25T00:12:23;19.80;56.00
59977;DHT22;45837;51.076;3.578;2023-02-25T00:14:48;19.80;55.80
59977;DHT22;45837;51.076;3.578;2023-02-25T00:17:14;19.70;56.00
59977;DHT22;45837;51.076;3.578;2023-02-25T00:19:40;19.80;55.60
59977;DHT22;45837;51.076;3.578;2023-02-25T00:22:06;19.70;54.50
59977;DHT22;45837;51.076;3.578;2023-02-25T00:24:31;19.70;56.10
59977;DHT22;45837;51.076;3.578;2023-02-25T00:26:57;19.70;55.50
59977;DHT22;45837;51.076;3.578;2023-02-25T00:29:23;19.70;55.90
59977;DHT22;45837;51.076;3.578;2023-02-25T00:31:49;19.70;55.90
59977;DHT22;45837;51.076;3.578;2023-02-25T00:34:14;19.70;55.80
59977;DHT22;45837;51.076;3.578;2023-02-25T00:36:42;19.60;55.40
59977;DHT22;45837;51.076;3.578;2023-02-25T00:39:07;19.60;56.20
59977;DHT22;45837;51.076;3.578;2023-02-25T00:41:33;19.60;55.60
59977;DHT22;45837;51.076;3.578;2023-02-25T00:44:00;19.60;56.20
59977;DHT22;45837;51.076;3.578;2023-02-25T00:46:27;19.80;56.40
59977;DHT22;45837;51.076;3.578;2023-02-25T00:48:53;19.60;54.40
59977;DHT22;45837;51.076;3.578;2023-02-25T00:51:23;19.50;54.60
59977;DHT22;45837;51.076;3.578;2023-02-25T00:53:51;19.70;55.00
59977;DHT22;45837;51.076;3.578;2023-02-25T00:56:17;19.60;55.00
59977;DHT22;45837;51.076;3.578;2023-02-25T00:58:45;19.60;54.40
59977;DHT22;45837;51.076;3.578;2023-02-25T01:01:30;19.60;55.10
59977;DHT22;45837;51.076;3.578;2023-02-25T01:03:59;19.60;54.40
59977;DHT22;45837;51.076;3.578;2023-02-25T01:06:25;19.50;54.30
59977;DHT22;45837;51.076;3.578;2023-02-25T01:08:52;19.50;54.90
59977;DHT22;45837;51.076;3.578;2023-02-25T01:11:22;19.50;54.90
59977;DHT22;45837;51.076;3.578;2023-02-25T01:13:52;19.50;54.70
59977;DHT22;45837;51.076;3.578;2023-02-25T01:16:21;19.50;54.20
59977;DHT22;45837;51.076;3.578;2023-02-25T01:18:47;19.50;54.70
59977;DHT22;45837;51.076;3.578;2023-02-25T01:21:16;19.50;54.80
59977;DHT22;45837;51.076;3.578;2023-02-25T01:23:46;19.50;54.90
59977;DHT22;45837;51.076;3.578;2023-02-25T01:26:12;19.50;54.10
59977;DHT22;45837;51.076;3.578;2023-02-25T01:28:38;19.40;54.90
59977;DHT22;45837;51.076;3.578;2023-02-25T01:31:04;19.40;54.10
59977;DHT22;45837;51.076;3.578;2023-02-25T01:33:33;19.40;54.00
59977;DHT22;45837;51.076;3.578;2023-02-25T01:36:05;19.40;54.80
59977;DHT22;45837;51.076;3.578;2023-02-25T01:38:32;19.40;54.00
59977;DHT22;45837;51.076;3.578;2023-02-25T01:40:58;19.40;54.00
59977;DHT22;45837;51.076;3.578;2023-02-25T01:43:24;19.40;54.00
59977;DHT22;45837;51.076;3.578;2023-02-25T01:45:50;19.40;54.10
59977;DHT22;45837;51.076;3.578;2023-02-25T01:48:32;19.40;54.00
59977;DHT22;45837;51.076;3.578;2023-02-25T01:51:00;19.40;54.60
59977;DHT22;45837;51.076;3.578;2023-02-25T01:53:34;19.30;54.00
59977;DHT22;45837;51.076;3.578;2023-02-25T01:56:01;19.30;53.90
59977;DHT22;45837;51.076;3.578;2023-02-25T01:58:28;19.40;54.70
59977;DHT22;45837;51.076;3.578;2023-02-25T02:00:54;19.30;54.60
59977;DHT22;45837;51.076;3.578;2023-02-25T02:03:30;19.30;53.90
59977;DHT22;45837;51.076;3.578;2023-02-25T02:08:23;19.30;53.80
59977;DHT22;45837;51.076;3.578;2023-02-25T02:10:52;19.30;53.80
59977;DHT22;45837;51.076;3.578;2023-02-25T02:13:18;19.30;53.80
59977;DHT22;45837;51.076;3.578;2023-02-25T02:15:58;19.30;53.80
59977;DHT22;45837;51.076;3.578;2023-02-25T02:18:28;19.30;54.40
59977;DHT22;45837;51.076;3.578;2023-02-25T02:21:06;19.20;53.80
59977;DHT22;45837;51.076;3.578;2023-02-25T02:23:40;19.20;53.80
59977;DHT22;45837;51.076;3.578;2023-02-25T02:39:33;19.20;53.80
59977;DHT22;45837;51.076;3.578;2023-02-25T02:42:06;19.20;53.70
59977;DHT22;45837;51.076;3.578;2023-02-25T02:44:54;19.20;53.70
59977;DHT22;45837;51.076;3.578;2023-02-25T02:47:25;19.10;53.70
59977;DHT22;45837;51.076;3.578;2023-02-25T02:49:54;19.10;53.70
59977;DHT22;45837;51.076;3.578;2023-02-25T02:52:22;19.10;53.70
59977;DHT22;45837;51.076;3.578;2023-02-25T02:54:54;19.10;53.70
59977;DHT22;45837;51.076;3.578;2023-02-25T02:57:21;19.10;54.20
59977;DHT22;45837;51.076;3.578;2023-02-25T02:59:50;19.10;53.70
59977;DHT22;45837;51.076;3.578;2023-02-25T03:02:30;19.10;53.70
59977;DHT22;45837;51.076;3.578;2023-02-25T03:05:00;19.10;53.70
59977;DHT22;45837;51.076;3.578;2023-02-25T03:07:26;19.10;53.80
59977;DHT22;45837;51.076;3.578;2023-02-25T03:09:57;19.10;54.50
59977;DHT22;45837;51.076;3.578;2023-02-25T03:12:30;19.10;54.40
59977;DHT22;45837;51.076;3.578;2023-02-25T03:14:56;19.00;55.20
59977;DHT22;45837;51.076;3.578;2023-02-25T03:17:26;19.00;53.80
59977;DHT22;45837;51.076;3.578;2023-02-25T03:22:38;19.00;54.30
59977;DHT22;45837;51.076;3.578;2023-02-25T03:25:27;19.00;53.80
59977;DHT22;45837;51.076;3.578;2023-02-25T03:27:56;19.00;53.80
59977;DHT22;45837;51.076;3.578;2023-02-25T03:30:36;19.00;53.80
59977;DHT22;45837;51.076;3.578;2023-02-25T03:33:11;19.00;53.80
59977;DHT22;45837;51.076;3.578;2023-02-25T03:35:39;19.10;54.30
59977;DHT22;45837;51.076;3.578;2023-02-25T03:38:08;19.00;53.80
59977;DHT22;45837;51.076;3.578;2023-02-25T03:40:36;19.00;53.80
59977;DHT22;45837;51.076;3.578;2023-02-25T03:43:09;18.90;53.70
59977;DHT22;45837;51.076;3.578;2023-02-25T03:45:36;18.90;53.70
59977;DHT22;45837;51.076;3.578;2023-02-25T03:48:04;18.90;53.70
59977;DHT22;45837;51.076;3.578;2023-02-25T03:50:32;19.10;54.50
59977;DHT22;45837;51.076;3.578;2023-02-25T03:53:03;18.90;53.70
59977;DHT22;45837;51.076;3.578;2023-02-25T03:55:47;18.90;53.70
59977;DHT22;45837;51.076;3.578;2023-02-25T03:58:13;18.90;53.70
59977;DHT22;45837;51.076;3.578;2023-02-25T04:00:39;18.90;53.70
59977;DHT22;45837;51.076;3.578;2023-02-25T04:03:07;18.90;53.60
59977;DHT22;45837;51.076;3.578;2023-02-25T04:05:32;18.80;53.60
59977;DHT22;45837;51.076;3.578;2023-02-25T04:07:59;18.90;53.70
59977;DHT22;45837;51.076;3.578;2023-02-25T04:10:29;18.90;53.70
59977;DHT22;45837;51.076;3.578;2023-02-25T04:12:55;18.80;53.60
59977;DHT22;45837;51.076;3.578;2023-02-25T04:15:21;18.80;53.60
59977;DHT22;45837;51.076;3.578;2023-02-25T04:17:46;18.80;53.60
59977;DHT22;45837;51.076;3.578;2023-02-25T04:20:14;18.80;53.60
59977;DHT22;45837;51.076;3.578;2023-02-25T04:22:40;18.80;53.60
59977;DHT22;45837;51.076;3.578;2023-02-25T04:25:06;18.80;53.60
59977;DHT22;45837;51.076;3.578;2023-02-25T04:27:32;18.80;53.60
59977;DHT22;45837;51.076;3.578;2023-02-25T04:29:58;18.80;53.60
59977;DHT22;45837;51.076;3.578;2023-02-25T04:32:24;18.80;53.60
59977;DHT22;45837;51.076;3.578;2023-02-25T04:34:49;18.80;53.60
59977;DHT22;45837;51.076;3.578;2023-02-25T04:37:15;18.80;53.60
59977;DHT22;45837;51.076;3.578;2023-02-25T04:39:41;18.80;53.60
59977;DHT22;45837;51.076;3.578;2023-02-25T04:42:07;18.80;53.60
59977;DHT22;45837;51.076;3.578;2023-02-25T04:44:33;18.70;53.60
59977;DHT22;45837;51.076;3.578;2023-02-25T04:46:59;18.70;53.60
59977;DHT22;45837;51.076;3.578;2023-02-25T04:49:24;18.70;53.60
59977;DHT22;45837;51.076;3.578;2023-02-25T04:51:50;18.80;53.60
59977;DHT22;45837;51.076;3.578;2023-02-25T04:54:17;18.60;53.50
59977;DHT22;45837;51.076;3.578;2023-02-25T04:56:43;18.70;53.60
59977;DHT22;45837;51.076;3.578;2023-02-25T04:59:08;18.70;53.60
59977;DHT22;45837;51.076;3.578;2023-02-25T05:01:36;18.70;53.60
59977;DHT22;45837;51.076;3.578;2023-02-25T05:04:01;18.70;53.60
59977;DHT22;45837;51.076;3.578;2023-02-25T05:06:27;18.70;53.60
59977;DHT22;45837;51.076;3.578;2023-02-25T05:08:53;18.70;53.60
59977;DHT22;45837;51.076;3.578;2023-02-25T05:11:19;18.70;53.60
59977;DHT22;45837;51.076;3.578;2023-02-25T05:13:45;18.60;53.50
59977;DHT22;45837;51.076;3.578;2023-02-25T05:16:13;18.70;53.50
59977;DHT22;45837;51.076;3.578;2023-02-25T05:18:41;18.70;53.50
59977;DHT22;45837;51.076;3.578;2023-02-25T05:21:10;18.70;53.50
59977;DHT22;45837;51.076;3.578;2023-02-25T05:23:37;18.60;53.50
59977;DHT22;45837;51.076;3.578;2023-02-25T05:26:03;18.60;53.50
59977;DHT22;45837;51.076;3.578;2023-02-25T05:28:29;18.60;53.50
59977;DHT22;45837;51.076;3.578;2023-02-25T05:30:54;18.60;53.50
59977;DHT22;45837;51.076;3.578;2023-02-25T05:33:21;18.60;53.50
59977;DHT22;45837;51.076;3.578;2023-02-25T05:35:47;18.60;53.50
59977;DHT22;45837;51.076;3.578;2023-02-25T05:38:13;18.60;53.50
59977;DHT22;45837;51.076;3.578;2023-02-25T05:40:39;18.60;54.50
59977;DHT22;45837;51.076;3.578;2023-02-25T05:43:05;18.60;53.50
59977;DHT22;45837;51.076;3.578;2023-02-25T05:45:31;18.60;53.50
59977;DHT22;45837;51.076;3.578;2023-02-25T05:47:57;18.60;53.50
59977;DHT22;45837;51.076;3.578;2023-02-25T05:50:22;18.60;53.50
59977;DHT22;45837;51.076;3.578;2023-02-25T05:52:48;18.60;53.50
59977;DHT22;45837;51.076;3.578;2023-02-25T05:55:14;18.50;53.50
59977;DHT22;45837;51.076;3.578;2023-02-25T05:57:43;18.60;53.60
59977;DHT22;45837;51.076;3.578;2023-02-25T06:00:09;18.50;53.50
59977;DHT22;45837;51.076;3.578;2023-02-25T06:02:41;18.60;53.60
59977;DHT22;45837;51.076;3.578;2023-02-25T06:05:08;18.60;54.30
59977;DHT22;45837;51.076;3.578;2023-02-25T06:07:34;18.50;53.50
59977;DHT22;45837;51.076;3.578;2023-02-25T06:09:59;18.50;53.50
59977;DHT22;45837;51.076;3.578;2023-02-25T06:12:30;18.70;54.90
59977;DHT22;45837;51.076;3.578;2023-02-25T06:14:56;18.50;53.50
59977;DHT22;45837;51.076;3.578;2023-02-25T06:17:22;18.50;53.50
59977;DHT22;45837;51.076;3.578;2023-02-25T06:19:51;18.50;54.30
59977;DHT22;45837;51.076;3.578;2023-02-25T06:22:17;18.50;54.20
59977;DHT22;45837;51.076;3.578;2023-02-25T06:24:43;18.50;54.20
59977;DHT22;45837;51.076;3.578;2023-02-25T06:27:08;18.50;53.50
59977;DHT22;45837;51.076;3.578;2023-02-25T06:29:35;18.50;53.50
59977;DHT22;45837;51.076;3.578;2023-02-25T06:32:00;18.50;54.30
59977;DHT22;45837;51.076;3.578;2023-02-25T06:34:30;18.40;53.50
59977;DHT22;45837;51.076;3.578;2023-02-25T06:36:57;18.50;54.20
59977;DHT22;45837;51.076;3.578;2023-02-25T06:39:23;18.40;54.20
59977;DHT22;45837;51.076;3.578;2023-02-25T06:41:48;18.50;55.20
59977;DHT22;45837;51.076;3.578;2023-02-25T06:44:14;18.50;54.90
59977;DHT22;45837;51.076;3.578;2023-02-25T06:46:40;18.40;53.50
59977;DHT22;45837;51.076;3.578;2023-02-25T06:49:06;18.40;53.40
59977;DHT22;45837;51.076;3.578;2023-02-25T06:51:31;18.40;53.50
59977;DHT22;45837;51.076;3.578;2023-02-25T06:53:57;18.50;54.90
59977;DHT22;45837;51.076;3.578;2023-02-25T06:56:23;18.40;54.80
59977;DHT22;45837;51.076;3.578;2023-02-25T06:58:50;18.40;53.40
59977;DHT22;45837;51.076;3.578;2023-02-25T07:01:17;18.40;53.40
59977;DHT22;45837;51.076;3.578;2023-02-25T07:03:43;18.40;54.90
59977;DHT22;45837;51.076;3.578;2023-02-25T07:06:09;18.40;53.30
59977;DHT22;45837;51.076;3.578;2023-02-25T07:08:35;18.30;53.20
59977;DHT22;45837;51.076;3.578;2023-02-25T07:11:11;18.50;54.80
59977;DHT22;45837;51.076;3.578;2023-02-25T07:13:37;18.40;53.70
59977;DHT22;45837;51.076;3.578;2023-02-25T07:16:03;18.40;53.50
59977;DHT22;45837;51.076;3.578;2023-02-25T07:18:28;18.40;54.90
59977;DHT22;45837;51.076;3.578;2023-02-25T07:20:56;18.30;54.50
59977;DHT22;45837;51.076;3.578;2023-02-25T07:23:22;18.30;55.00
59977;DHT22;45837;51.076;3.578;2023-02-25T07:25:48;18.50;56.00
59977;DHT22;45837;51.076;3.578;2023-02-25T07:28:14;18.40;56.50
59977;DHT22;45837;51.076;3.578;2023-02-25T07:30:40;18.50;56.70
59977;DHT22;45837;51.076;3.578;2023-02-25T07:33:06;18.60;56.70
59977;DHT22;45837;51.076;3.578;2023-02-25T07:35:32;18.90;56.30
59977;DHT22;45837;51.076;3.578;2023-02-25T07:37:58;18.70;56.60
59977;DHT22;45837;51.076;3.578;2023-02-25T07:40:24;18.60;57.30
59977;DHT22;45837;51.076;3.578;2023-02-25T07:42:50;18.70;58.20
59977;DHT22;45837;51.076;3.578;2023-02-25T07:45:19;18.70;56.20
59977;DHT22;45837;51.076;3.578;2023-02-25T07:47:45;18.70;57.50
59977;DHT22;45837;51.076;3.578;2023-02-25T07:50:11;18.80;56.40
59977;DHT22;45837;51.076;3.578;2023-02-25T07:52:36;18.80;58.00
59977;DHT22;45837;51.076;3.578;2023-02-25T07:55:03;18.90;56.40
59977;DHT22;45837;51.076;3.578;2023-02-25T07:57:29;18.90;57.40
59977;DHT22;45837;51.076;3.578;2023-02-25T07:59:54;19.00;58.20
59977;DHT22;45837;51.076;3.578;2023-02-25T08:02:20;19.10;58.50
59977;DHT22;45837;51.076;3.578;2023-02-25T08:04:46;19.40;58.40
59977;DHT22;45837;51.076;3.578;2023-02-25T08:07:12;19.30;58.20
59977;DHT22;45837;51.076;3.578;2023-02-25T08:09:38;19.40;56.80
59977;DHT22;45837;51.076;3.578;2023-02-25T08:12:04;19.70;58.50
59977;DHT22;45837;51.076;3.578;2023-02-25T08:14:29;19.60;58.20
59977;DHT22;45837;51.076;3.578;2023-02-25T08:16:56;19.70;57.60
59977;DHT22;45837;51.076;3.578;2023-02-25T08:19:22;19.80;56.30
59977;DHT22;45837;51.076;3.578;2023-02-25T08:21:47;19.90;56.60
59977;DHT22;45837;51.076;3.578;2023-02-25T08:24:13;20.00;57.30
59977;DHT22;45837;51.076;3.578;2023-02-25T08:26:39;20.10;56.10
59977;DHT22;45837;51.076;3.578;2023-02-25T08:29:05;20.10;55.90
59977;DHT22;45837;51.076;3.578;2023-02-25T08:31:32;20.20;54.60
59977;DHT22;45837;51.076;3.578;2023-02-25T08:33:58;20.30;54.30
59977;DHT22;45837;51.076;3.578;2023-02-25T08:36:25;20.40;55.00
59977;DHT22;45837;51.076;3.578;2023-02-25T08:38:51;20.40;54.10
59977;DHT22;45837;51.076;3.578;2023-02-25T08:41:17;20.40;54.20
59977;DHT22;45837;51.076;3.578;2023-02-25T08:43:43;20.50;54.40
59977;DHT22;45837;51.076;3.578;2023-02-25T08:46:11;20.60;54.70
59977;DHT22;45837;51.076;3.578;2023-02-25T08:48:38;20.50;54.80
59977;DHT22;45837;51.076;3.578;2023-02-25T08:51:08;20.60;54.60
59977;DHT22;45837;51.076;3.578;2023-02-25T08:53:37;20.50;54.30
59977;DHT22;45837;51.076;3.578;2023-02-25T08:56:04;20.40;54.20
59977;DHT22;45837;51.076;3.578;2023-02-25T08:58:30;20.50;52.60
59977;DHT22;45837;51.076;3.578;2023-02-25T09:00:56;20.50;52.60
59977;DHT22;45837;51.076;3.578;2023-02-25T09:03:21;20.50;52.70
59977;DHT22;45837;51.076;3.578;2023-02-25T09:05:53;20.40;51.90
59977;DHT22;45837;51.076;3.578;2023-02-25T09:08:19;20.40;50.80
59977;DHT22;45837;51.076;3.578;2023-02-25T09:10:45;19.00;49.90
59977;DHT22;45837;51.076;3.578;2023-02-25T09:13:11;20.40;49.60
59977;DHT22;45837;51.076;3.578;2023-02-25T09:15:37;20.40;49.70
59977;DHT22;45837;51.076;3.578;2023-02-25T09:18:03;20.30;48.40
59977;DHT22;45837;51.076;3.578;2023-02-25T09:20:28;20.40;49.70
59977;DHT22;45837;51.076;3.578;2023-02-25T09:22:54;20.40;49.90
59977;DHT22;45837;51.076;3.578;2023-02-25T09:25:21;20.40;49.30
59977;DHT22;45837;51.076;3.578;2023-02-25T09:27:46;20.30;48.80
59977;DHT22;45837;51.076;3.578;2023-02-25T09:30:12;20.30;50.90
59977;DHT22;45837;51.076;3.578;2023-02-25T09:32:38;20.30;49.80
59977;DHT22;45837;51.076;3.578;2023-02-25T09:35:04;19.70;51.70
59977;DHT22;45837;51.076;3.578;2023-02-25T09:37:30;20.30;51.10
59977;DHT22;45837;51.076;3.578;2023-02-25T09:39:56;20.30;52.20
59977;DHT22;45837;51.076;3.578;2023-02-25T09:42:22;20.30;50.80
59977;DHT22;45837;51.076;3.578;2023-02-25T09:44:54;20.30;50.90
59977;DHT22;45837;51.076;3.578;2023-02-25T09:50:13;20.30;52.00
59977;DHT22;45837;51.076;3.578;2023-02-25T09:52:46;20.30;52.20
59977;DHT22;45837;51.076;3.578;2023-02-25T09:58:01;20.20;52.90
59977;DHT22;45837;51.076;3.578;2023-02-25T10:00:28;20.30;53.20
59977;DHT22;45837;51.076;3.578;2023-02-25T10:03:44;20.30;53.10
59977;DHT22;45837;51.076;3.578;2023-02-25T10:06:02;20.30;51.50
59977;DHT22;45837;51.076;3.578;2023-02-25T10:16:42;20.30;44.20
59977;DHT22;45837;51.076;3.578;2023-02-25T10:27:46;20.30;42.90
59977;DHT22;45837;51.076;3.578;2023-02-25T10:29:47;20.30;41.90
59977;DHT22;45837;51.076;3.578;2023-02-25T10:34:45;20.20;40.90
59977;DHT22;45837;51.076;3.578;2023-02-25T10:37:13;20.20;40.60
59977;DHT22;45837;51.076;3.578;2023-02-25T10:39:40;20.20;40.50
59977;DHT22;45837;51.076;3.578;2023-02-25T10:42:06;20.10;40.60
59977;DHT22;45837;51.076;3.578;2023-02-25T10:44:34;20.10;40.80
59977;DHT22;45837;51.076;3.578;2023-02-25T10:47:00;19.90;41.50
59977;DHT22;45837;51.076;3.578;2023-02-25T10:49:28;20.00;42.70
59977;DHT22;45837;51.076;3.578;2023-02-25T10:54:26;20.10;43.90
59977;DHT22;45837;51.076;3.578;2023-02-25T10:56:52;20.10;45.30
59977;DHT22;45837;51.076;3.578;2023-02-25T11:01:43;20.20;46.20
59977;DHT22;45837;51.076;3.578;2023-02-25T11:04:10;20.20;46.80
59977;DHT22;45837;51.076;3.578;2023-02-25T11:06:37;20.30;46.10
59977;DHT22;45837;51.076;3.578;2023-02-25T11:09:05;20.40;46.20
59977;DHT22;45837;51.076;3.578;2023-02-25T11:11:32;20.40;46.20
59977;DHT22;45837;51.076;3.578;2023-02-25T11:16:24;20.70;46.40
59977;DHT22;45837;51.076;3.578;2023-02-25T11:18:55;20.70;45.90
59977;DHT22;45837;51.076;3.578;2023-02-25T11:21:34;20.80;45.60
59977;DHT22;45837;51.076;3.578;2023-02-25T11:24:02;20.90;45.60
59977;DHT22;45837;51.076;3.578;2023-02-25T11:26:31;20.90;45.00
59977;DHT22;45837;51.076;3.578;2023-02-25T11:29:01;21.00;45.00
59977;DHT22;45837;51.076;3.578;2023-02-25T11:31:32;21.00;45.00
59977;DHT22;45837;51.076;3.578;2023-02-25T11:33:59;21.00;46.00
59977;DHT22;45837;51.076;3.578;2023-02-25T11:36:28;20.90;46.70
59977;DHT22;45837;51.076;3.578;2023-02-25T11:39:03;20.90;46.50
59977;DHT22;45837;51.076;3.578;2023-02-25T11:41:29;20.90;47.10
59977;DHT22;45837;51.076;3.578;2023-02-25T11:43:56;21.00;46.50
59977;DHT22;45837;51.076;3.578;2023-02-25T11:46:23;21.00;46.40
59977;DHT22;45837;51.076;3.578;2023-02-25T11:54:28;21.00;46.00
59977;DHT22;45837;51.076;3.578;2023-02-25T11:57:03;21.00;44.80
59977;DHT22;45837;51.076;3.578;2023-02-25T11:59:35;20.90;42.80
59977;DHT22;45837;51.076;3.578;2023-02-25T12:07:14;20.60;41.60
59977;DHT22;45837;51.076;3.578;2023-02-25T12:20:03;20.60;45.90
59977;DHT22;45837;51.076;3.578;2023-02-25T12:25:07;20.60;46.80
59977;DHT22;45837;51.076;3.578;2023-02-25T12:27:41;20.60;46.80
59977;DHT22;45837;51.076;3.578;2023-02-25T12:30:31;20.60;46.50
59977;DHT22;45837;51.076;3.578;2023-02-25T12:35:48;20.60;44.00
59977;DHT22;45837;51.076;3.578;2023-02-25T12:43:49;20.40;41.00
59977;DHT22;45837;51.076;3.578;2023-02-25T12:46:18;20.40;41.80
59977;DHT22;45837;51.076;3.578;2023-02-25T12:56:34;20.60;42.70
59977;DHT22;45837;51.076;3.578;2023-02-25T13:04:38;20.60;43.40
59977;DHT22;45837;51.076;3.578;2023-02-25T13:12:16;20.60;44.20
59977;DHT22;45837;51.076;3.578;2023-02-25T13:15:01;20.60;44.90
59977;DHT22;45837;51.076;3.578;2023-02-25T13:28:16;20.50;45.70
59977;DHT22;45837;51.076;3.578;2023-02-25T13:33:41;20.50;46.10
59977;DHT22;45837;51.076;3.578;2023-02-25T13:36:20;20.50;46.30
59977;DHT22;45837;51.076;3.578;2023-02-25T13:39:02;20.40;46.50
59977;DHT22;45837;51.076;3.578;2023-02-25T13:44:15;20.40;46.80
59977;DHT22;45837;51.076;3.578;2023-02-25T13:49:18;20.30;47.00
59977;DHT22;45837;51.076;3.578;2023-02-25T13:54:19;20.30;46.70
59977;DHT22;45837;51.076;3.578;2023-02-25T14:04:53;20.20;47.60
59977;DHT22;45837;51.076;3.578;2023-02-25T14:10:00;20.20;47.80
59977;DHT22;45837;51.076;3.578;2023-02-25T14:12:32;20.10;47.40
59977;DHT22;45837;51.076;3.578;2023-02-25T14:20:53;20.20;47.60
59977;DHT22;45837;51.076;3.578;2023-02-25T14:23:31;20.10;48.20
59977;DHT22;45837;51.076;3.578;2023-02-25T14:31:00;20.10;48.40
59977;DHT22;45837;51.076;3.578;2023-02-25T14:33:40;20.00;47.90
59977;DHT22;45837;51.076;3.578;2023-02-25T14:36:18;20.00;48.40
59977;DHT22;45837;51.076;3.578;2023-02-25T14:41:51;20.00;47.90
59977;DHT22;45837;51.076;3.578;2023-02-25T14:44:24;20.00;48.00
59977;DHT22;45837;51.076;3.578;2023-02-25T14:46:55;19.90;48.00
59977;DHT22;45837;51.076;3.578;2023-02-25T14:49:24;19.90;48.00
59977;DHT22;45837;51.076;3.578;2023-02-25T14:54:46;19.90;48.60
59977;DHT22;45837;51.076;3.578;2023-02-25T15:00:40;19.90;48.60
59977;DHT22;45837;51.076;3.578;2023-02-25T15:20:37;19.80;48.20
59977;DHT22;45837;51.076;3.578;2023-02-25T15:23:04;19.80;48.80
59977;DHT22;45837;51.076;3.578;2023-02-25T15:25:41;19.80;48.30
59977;DHT22;45837;51.076;3.578;2023-02-25T15:35:56;19.80;49.00
59977;DHT22;45837;51.076;3.578;2023-02-25T15:38:42;19.70;48.90
59977;DHT22;45837;51.076;3.578;2023-02-25T15:54:10;19.70;48.30
59977;DHT22;45837;51.076;3.578;2023-02-25T15:56:53;19.70;48.90
59977;DHT22;45837;51.076;3.578;2023-02-25T16:02:28;19.70;48.40
59977;DHT22;45837;51.076;3.578;2023-02-25T16:04:49;19.70;49.00
59977;DHT22;45837;51.076;3.578;2023-02-25T16:07:16;19.70;48.40
59977;DHT22;45837;51.076;3.578;2023-02-25T16:09:45;19.60;48.40
59977;DHT22;45837;51.076;3.578;2023-02-25T16:12:12;19.70;48.40
59977;DHT22;45837;51.076;3.578;2023-02-25T16:14:38;19.60;48.90
59977;DHT22;45837;51.076;3.578;2023-02-25T16:19:35;19.60;48.50
59977;DHT22;45837;51.076;3.578;2023-02-25T16:22:11;19.60;48.50
59977;DHT22;45837;51.076;3.578;2023-02-25T16:24:39;19.60;48.50
59977;DHT22;45837;51.076;3.578;2023-02-25T16:27:05;19.60;48.60
59977;DHT22;45837;51.076;3.578;2023-02-25T16:29:54;19.60;48.50
59977;DHT22;45837;51.076;3.578;2023-02-25T16:35:05;19.60;48.40
59977;DHT22;45837;51.076;3.578;2023-02-25T16:37:38;19.60;46.90
59977;DHT22;45837;51.076;3.578;2023-02-25T16:40:11;19.50;47.60
59977;DHT22;45837;51.076;3.578;2023-02-25T16:42:37;19.50;47.80
59977;DHT22;45837;51.076;3.578;2023-02-25T16:45:03;19.50;47.80
59977;DHT22;45837;51.076;3.578;2023-02-25T16:47:31;19.50;47.80
59977;DHT22;45837;51.076;3.578;2023-02-25T16:49:58;19.50;47.50
59977;DHT22;45837;51.076;3.578;2023-02-25T16:52:31;19.50;47.10
59977;DHT22;45837;51.076;3.578;2023-02-25T16:54:59;19.50;47.90
59977;DHT22;45837;51.076;3.578;2023-02-25T16:57:26;19.50;47.70
59977;DHT22;45837;51.076;3.578;2023-02-25T17:00:12;19.50;47.50
59977;DHT22;45837;51.076;3.578;2023-02-25T17:02:41;19.50;47.60
59977;DHT22;45837;51.076;3.578;2023-02-25T17:05:10;19.60;47.80
59977;DHT22;45837;51.076;3.578;2023-02-25T17:07:46;19.60;48.50
59977;DHT22;45837;51.076;3.578;2023-02-25T17:10:22;19.60;48.30
59977;DHT22;45837;51.076;3.578;2023-02-25T17:12:48;19.70;49.70
59977;DHT22;45837;51.076;3.578;2023-02-25T17:17:51;19.80;50.80
59977;DHT22;45837;51.076;3.578;2023-02-25T17:20:21;19.80;50.60
59977;DHT22;45837;51.076;3.578;2023-02-25T17:22:48;19.90;51.10
59977;DHT22;45837;51.076;3.578;2023-02-25T17:25:14;20.00;51.10
59977;DHT22;45837;51.076;3.578;2023-02-25T17:27:40;20.10;50.90
59977;DHT22;45837;51.076;3.578;2023-02-25T17:32:54;20.30;50.20
59977;DHT22;45837;51.076;3.578;2023-02-25T17:35:24;20.50;50.00
59977;DHT22;45837;51.076;3.578;2023-02-25T17:37:50;20.60;50.00
59977;DHT22;45837;51.076;3.578;2023-02-25T17:40:16;20.60;50.40
59977;DHT22;45837;51.076;3.578;2023-02-25T17:42:42;20.50;50.00
59977;DHT22;45837;51.076;3.578;2023-02-25T17:47:55;20.80;49.30
59977;DHT22;45837;51.076;3.578;2023-02-25T17:52:47;20.90;49.40
59977;DHT22;45837;51.076;3.578;2023-02-25T17:55:46;20.90;49.00
59977;DHT22;45837;51.076;3.578;2023-02-25T17:58:05;20.90;48.30
59977;DHT22;45837;51.076;3.578;2023-02-25T18:00:32;20.90;49.80
59977;DHT22;45837;51.076;3.578;2023-02-25T18:05:33;20.90;48.70
59977;DHT22;45837;51.076;3.578;2023-02-25T18:08:09;20.90;49.10
59977;DHT22;45837;51.076;3.578;2023-02-25T18:10:41;20.90;49.00
59977;DHT22;45837;51.076;3.578;2023-02-25T18:13:14;20.80;49.30
59977;DHT22;45837;51.076;3.578;2023-02-25T18:15:41;20.80;49.30
59977;DHT22;45837;51.076;3.578;2023-02-25T18:18:06;20.80;50.10
59977;DHT22;45837;51.076;3.578;2023-02-25T18:20:43;20.00;48.70
59977;DHT22;45837;51.076;3.578;2023-02-25T18:25:43;20.90;48.50
59977;DHT22;45837;51.076;3.578;2023-02-25T18:28:15;20.90;48.40
59977;DHT22;45837;51.076;3.578;2023-02-25T18:30:41;20.90;48.40
59977;DHT22;45837;51.076;3.578;2023-02-25T18:33:07;20.80;48.70
59977;DHT22;45837;51.076;3.578;2023-02-25T18:35:37;20.90;48.90
59977;DHT22;45837;51.076;3.578;2023-02-25T18:38:03;20.80;48.60
59977;DHT22;45837;51.076;3.578;2023-02-25T18:42:55;20.80;49.40
59977;DHT22;45837;51.076;3.578;2023-02-25T18:45:22;20.80;48.60
59977;DHT22;45837;51.076;3.578;2023-02-25T18:47:49;20.70;48.50
59977;DHT22;45837;51.076;3.578;2023-02-25T18:50:15;20.70;48.50
59977;DHT22;45837;51.076;3.578;2023-02-25T18:52:41;20.70;48.90
59977;DHT22;45837;51.076;3.578;2023-02-25T18:55:08;20.70;49.00
59977;DHT22;45837;51.076;3.578;2023-02-25T18:57:33;20.60;48.50
59977;DHT22;45837;51.076;3.578;2023-02-25T18:59:59;20.60;49.50
59977;DHT22;45837;51.076;3.578;2023-02-25T19:02:28;20.60;49.70
59977;DHT22;45837;51.076;3.578;2023-02-25T19:04:54;20.60;48.70
59977;DHT22;45837;51.076;3.578;2023-02-25T19:07:21;20.50;49.20
59977;DHT22;45837;51.076;3.578;2023-02-25T19:09:46;20.50;49.00
59977;DHT22;45837;51.076;3.578;2023-02-25T19:12:12;20.50;49.20
59977;DHT22;45837;51.076;3.578;2023-02-25T19:14:40;20.40;48.80